Melville, Montana
Current Conditions -  °F | °C
As of 12:53 AM on Sunday 23 Nov 2014 (Local Time) from KLVM Reporting Station
Overcast Overcast  
Wind Chill: 26°   Ceiling: 6000
Heat Index: 35°   Visibility: 10mi
Dew Point: 20°   Wind: 14mph
Humidity: 54%   Direction: 250°WSW
Pressure: 29.75"   Gusts: NA
Location:  46.1°N, 109.96°W
Report Text: KLVM 230753Z AUTO 25012KT 10SM BKN060 OVC075 02/M07 A2975 RMK AO2 SLP085 T00171067
Loading
Personal Weather Stations






























Interactive Weather Map New forecast layout! Learn more

10-Day Weather Forecast

Advertisements
Track Severe Weather on mobile